createdAt,value
2019-05-30T00:00:17.735Z,97.2
2019-05-30T00:02:56.622Z,97.3
2019-05-30T00:03:56.090Z,97.2
2019-05-30T00:06:58.835Z,97.2
2019-05-30T00:07:58.837Z,97.1
2019-05-30T00:09:00.636Z,97.1
2019-05-30T00:10:01.033Z,97.2
2019-05-30T00:12:05.216Z,97.3
2019-05-30T00:15:06.718Z,97.2
2019-05-30T00:16:07.141Z,97.2
2019-05-30T00:17:08.547Z,97.2
2019-05-30T00:18:09.935Z,97.2
2019-05-30T00:19:11.333Z,97.2
2019-05-30T00:21:13.884Z,97.4
2019-05-30T00:22:15.274Z,97.7
2019-05-30T00:23:15.832Z,97.4
2019-05-30T00:24:16.595Z,97.3
2019-05-30T00:26:19.150Z,97.3
2019-05-30T00:27:20.543Z,97.2
2019-05-30T00:28:21.965Z,97.2
2019-05-30T00:29:23.001Z,97.3
2019-05-30T00:30:25.100Z,97.3
2019-05-30T00:31:25.475Z,97.4
2019-05-30T00:32:26.869Z,97.4
2019-05-30T00:33:28.257Z,97.4
2019-05-30T00:36:32.336Z,97.3
2019-05-30T00:40:36.111Z,97.3
2019-05-30T00:41:37.545Z,97.3
2019-05-30T00:42:38.940Z,97.3
2019-05-30T00:43:40.535Z,97.3
2019-05-30T00:44:41.294Z,97.2
2019-05-30T00:45:42.715Z,97.2
2019-05-30T00:46:44.124Z,97.3
2019-05-30T00:47:45.515Z,97.3
2019-05-30T00:48:46.914Z,97.2
2019-05-30T00:49:48.301Z,97.7
2019-05-30T00:50:49.735Z,97.3
2019-05-30T00:51:50.527Z,97.3
2019-05-30T00:52:51.609Z,97.3
2019-05-30T00:54:54.111Z,97.4
2019-05-30T00:55:54.743Z,97.4
2019-05-30T00:56:56.655Z,97.4
2019-05-30T00:58:58.865Z,97.4
2019-05-30T00:59:59.095Z,97.5
2019-05-30T01:01:01.223Z,97.5
2019-05-30T01:02:01.289Z,97.4
2019-05-30T01:03:08.627Z,97.3
2019-05-30T01:04:03.223Z,97.4
2019-05-30T01:05:05.261Z,97.4
2019-05-30T01:06:05.133Z,97.4
2019-05-30T01:07:05.535Z,97.3
2019-05-30T01:08:07.340Z,97.4
2019-05-30T01:09:07.766Z,97.4
2019-05-30T01:10:09.155Z,97.5
2019-05-30T01:15:14.445Z,97.5
2019-05-30T01:16:15.869Z,97.5
2019-05-30T01:21:21.789Z,97.6
2019-05-30T01:22:23.193Z,97.5
2019-05-30T01:25:26.867Z,97.7
2019-05-30T01:26:28.328Z,97.8
2019-05-30T01:29:31.976Z,97.6
2019-05-30T01:30:33.466Z,97.6
2019-05-30T01:32:36.246Z,97.6
2019-05-30T01:34:37.761Z,97.7
2019-05-30T01:35:38.533Z,98
2019-05-30T01:37:41.095Z,97.8
2019-05-30T01:38:42.495Z,97.7
2019-05-30T01:39:43.897Z,97.7
2019-05-30T01:42:47.574Z,97.7
2019-05-30T01:43:48.965Z,97.7
2019-05-30T01:44:50.379Z,97.6
2019-05-30T01:45:51.148Z,97.7
2019-05-30T01:46:52.545Z,97.6
2019-05-30T01:47:53.359Z,97.5
2019-05-30T01:48:54.772Z,97.5
2019-05-30T01:49:55.446Z,97.5
2019-05-30T01:52:58.727Z,97.6
2019-05-30T01:56:02.902Z,97.6
2019-05-30T01:57:03.137Z,97.7
2019-05-30T01:59:04.931Z,97.7
2019-05-30T02:00:20.452Z,97.7
2019-05-30T02:01:24.906Z,97.6
2019-05-30T02:02:07.423Z,97.7
2019-05-30T02:03:09.862Z,97.7
2019-05-30T02:07:13.033Z,97.7
2019-05-30T02:08:14.462Z,97.6
2019-05-30T02:09:15.845Z,97.6
2019-05-30T02:11:18.378Z,97.7
2019-05-30T02:12:19.800Z,97.8
2019-05-30T02:13:20.382Z,97.7
2019-05-30T02:14:21.779Z,97.6
2019-05-30T02:15:23.173Z,97.6
2019-05-30T02:16:23.645Z,97.6
2019-05-30T02:17:25.069Z,97.6
2019-05-30T02:18:26.470Z,97.6
2019-05-30T02:20:29.173Z,97.6
2019-05-30T02:21:29.557Z,97.7
2019-05-30T02:26:34.859Z,97.6
2019-05-30T02:27:36.260Z,97.6
2019-05-30T02:32:42.205Z,97.6
2019-05-30T02:35:45.866Z,97.6
2019-05-30T02:36:46.622Z,97.7
2019-05-30T02:37:48.031Z,97.6
2019-05-30T02:38:49.446Z,97.6
2019-05-30T02:39:50.816Z,97.5
2019-05-30T02:43:55.305Z,97.7
2019-05-30T02:44:56.378Z,97.6
2019-05-30T02:45:57.636Z,97.7
2019-05-30T02:46:58.570Z,97.6
2019-05-30T02:49:04.969Z,97.5
2019-05-30T02:50:05.441Z,97.5
2019-05-30T02:54:09.261Z,97.5
2019-05-30T02:55:10.905Z,97.4
2019-05-30T02:56:10.097Z,97.4
2019-05-30T02:57:12.325Z,97.4
2019-05-30T02:58:13.043Z,97.4
2019-05-30T02:59:13.813Z,97.2
2019-05-30T03:01:14.896Z,97.3
2019-05-30T03:02:17.927Z,97.3
2019-05-30T03:04:15.516Z,97.3
2019-05-30T03:05:16.946Z,97.2
2019-05-30T03:06:18.334Z,97.2
2019-05-30T03:07:19.077Z,97.3
2019-05-30T03:08:20.490Z,97.7
2019-05-30T03:09:21.879Z,97.3
2019-05-30T03:10:22.725Z,97.3
2019-05-30T03:11:24.117Z,97.3
2019-05-30T03:16:30.034Z,97.3
2019-05-30T03:17:31.134Z,97.4
2019-05-30T03:19:33.665Z,97.4
2019-05-30T03:20:35.055Z,97.4
2019-05-30T03:21:36.452Z,97.5
2019-05-30T03:22:37.848Z,97.4
2019-05-30T03:23:39.252Z,97.4
2019-05-30T03:26:42.908Z,97.3
2019-05-30T03:27:43.700Z,97.4
2019-05-30T03:28:45.109Z,97.5
2019-05-30T03:33:18.451Z,97.6
2019-05-30T03:33:49.995Z,97.5
2019-05-30T03:34:51.411Z,97.6
2019-05-30T03:35:52.808Z,97.6
2019-05-30T03:36:54.389Z,97.5
2019-05-30T03:37:55.186Z,97.6
2019-05-30T03:38:56.588Z,97.6
2019-05-30T03:41:59.283Z,97.6
2019-05-30T03:43:00.295Z,97.6
2019-05-30T03:44:00.811Z,97.5
2019-05-30T03:45:01.563Z,97.6
2019-05-30T03:47:06.144Z,97.6
2019-05-30T03:48:07.366Z,97.6
2019-05-30T03:49:08.647Z,97.5
2019-05-30T03:50:09.707Z,97.5
2019-05-30T03:52:14.964Z,97.6
2019-05-30T03:53:16.003Z,97.5
2019-05-30T03:54:15.766Z,97.6
2019-05-30T03:55:16.697Z,97.6
2019-05-30T03:58:20.250Z,97.6
2019-05-30T03:59:15.858Z,97.8
2019-05-30T04:00:18.830Z,97.6
2019-05-30T04:01:18.813Z,97.6
2019-05-30T04:02:19.332Z,97.7
2019-05-30T04:03:20.768Z,97.7
2019-05-30T04:04:22.147Z,97.6
2019-05-30T04:05:23.540Z,97.7
2019-05-30T04:06:24.920Z,97.8
2019-05-30T04:07:26.317Z,97.8
2019-05-30T04:08:27.106Z,97.7
2019-05-30T04:11:30.762Z,98
2019-05-30T04:12:32.164Z,98
2019-05-30T04:14:34.694Z,98.1
2019-05-30T04:15:36.096Z,98
2019-05-30T04:16:37.492Z,98.1
2019-05-30T04:17:38.882Z,98
2019-05-30T04:22:44.379Z,98.2
2019-05-30T04:23:45.770Z,98.1
2019-05-30T04:24:47.175Z,98.2
2019-05-30T04:25:48.566Z,98.1
2019-05-30T04:26:49.969Z,98.2
2019-05-30T04:27:51.356Z,98.2
2019-05-30T04:28:52.149Z,98.2
2019-05-30T04:30:54.665Z,98.2
2019-05-30T04:31:56.058Z,98.2
2019-05-30T04:33:58.359Z,98
2019-05-30T04:34:59.758Z,98.1
2019-05-30T04:37:02.295Z,98.2
2019-05-30T04:38:03.496Z,98.1
2019-05-30T04:40:05.375Z,98.3
2019-05-30T04:41:06.877Z,98.1
2019-05-30T04:42:11.312Z,98.1
2019-05-30T04:43:13.092Z,98.1
2019-05-30T04:44:14.380Z,98
2019-05-30T04:45:13.722Z,98.2
2019-05-30T04:46:16.705Z,98
2019-05-30T04:48:16.240Z,98.1
2019-05-30T04:49:20.968Z,98.2
2019-05-30T04:50:20.551Z,98.1
2019-05-30T04:51:21.818Z,98.1
2019-05-30T04:52:25.019Z,98.1
2019-05-30T04:54:21.709Z,97.9
2019-05-30T04:55:23.392Z,97.8
2019-05-30T04:56:23.772Z,97.7
2019-05-30T04:57:27.379Z,97.7
2019-05-30T04:58:25.926Z,97.7
2019-05-30T04:59:26.737Z,97.7
2019-05-30T05:00:28.119Z,97.6
2019-05-30T05:03:48.791Z,97.5
2019-05-30T05:04:33.020Z,97.5
2019-05-30T05:05:34.417Z,97.8
2019-05-30T05:09:38.981Z,97.3
2019-05-30T05:10:40.382Z,97.3
2019-05-30T05:12:42.947Z,97.2
2019-05-30T05:13:44.341Z,97.2
2019-05-30T05:14:45.781Z,97.2
2019-05-30T05:15:48.172Z,97.3
2019-05-30T05:16:48.557Z,97.3
2019-05-30T05:17:49.873Z,97.3
2019-05-30T05:18:51.269Z,97.1
2019-05-30T05:19:52.089Z,97.2
2019-05-30T05:20:53.487Z,97
2019-05-30T05:22:56.004Z,96.9
2019-05-30T05:23:57.404Z,96.7
2019-05-30T05:24:58.825Z,96.8
2019-05-30T05:29:03.394Z,96.7
2019-05-30T05:30:04.179Z,96.7
2019-05-30T05:34:08.977Z,96.2
2019-05-30T05:35:09.657Z,95.9
2019-05-30T05:38:13.231Z,95.5
2019-05-30T05:39:16.036Z,95.2
2019-05-30T05:40:16.174Z,95.1
2019-05-30T05:42:18.181Z,94.1
2019-05-30T05:43:18.875Z,93.8
2019-05-30T05:44:20.489Z,93.8
2019-05-30T05:45:20.906Z,92.5
2019-05-30T05:46:22.673Z,92.7
2019-05-30T05:49:25.341Z,91.7
2019-05-30T05:51:27.309Z,91.2
2019-05-30T05:52:29.269Z,91
2019-05-30T05:53:30.133Z,90.7
2019-05-30T05:54:30.523Z,91.2
2019-05-30T05:55:31.923Z,90.4
2019-05-30T05:56:33.331Z,90.4
2019-05-30T05:57:33.901Z,90
2019-05-30T05:58:35.308Z,89
2019-05-30T05:59:39.577Z,89.2
2019-05-30T06:00:37.787Z,88.2
2019-05-30T06:02:43.665Z,89.2
2019-05-30T06:03:40.983Z,89
2019-05-30T06:06:44.501Z,87
2019-05-30T06:07:45.909Z,87
2019-05-30T06:08:50.575Z,86.7
2019-05-30T06:09:47.929Z,88
2019-05-30T06:10:48.769Z,87.6
2019-05-30T06:11:50.185Z,87.3
2019-05-30T06:12:51.576Z,88.2
2019-05-30T06:13:52.971Z,89.2
2019-05-30T06:14:54.380Z,88
2019-05-30T06:15:55.795Z,88.3
2019-05-30T06:16:57.191Z,87.3
2019-05-30T06:17:58.580Z,87
2019-05-30T06:18:59.976Z,87.2
2019-05-30T06:20:01.362Z,88.2
2019-05-30T06:21:02.147Z,88
2019-05-30T06:22:03.550Z,87.4
2019-05-30T06:25:07.207Z,86.3
2019-05-30T06:26:08.626Z,86.6
2019-05-30T06:27:10.021Z,86.7
2019-05-30T06:28:11.425Z,85.8
2019-05-30T06:29:12.131Z,85.7
2019-05-30T06:30:13.119Z,85.8
2019-05-30T06:31:13.935Z,84.5
2019-05-30T06:32:14.414Z,85.6
2019-05-30T06:34:39.128Z,85.7
2019-05-30T06:35:16.795Z,85.3
2019-05-30T06:36:19.212Z,85.5
2019-05-30T06:37:19.403Z,86
2019-05-30T06:38:21.172Z,86.7
2019-05-30T06:39:21.532Z,86.6
2019-05-30T06:41:23.677Z,87.1
2019-05-30T06:42:25.887Z,85.8
2019-05-30T06:43:26.289Z,87.2
2019-05-30T06:44:26.141Z,85.2
2019-05-30T06:47:29.143Z,85.3
2019-05-30T06:51:33.302Z,79.9
2019-05-30T06:52:34.734Z,81
2019-05-30T06:53:36.140Z,82.9
2019-05-30T06:54:37.533Z,81.9
2019-05-30T06:55:38.923Z,81.2
2019-05-30T06:59:43.244Z,81.5
2019-05-30T07:01:45.187Z,79.2
2019-05-30T07:02:46.443Z,80.6
2019-05-30T07:03:48.236Z,79.9
2019-05-30T07:04:53.123Z,79.7
2019-05-30T07:05:50.213Z,79.6
2019-05-30T07:06:51.282Z,77.8
2019-05-30T07:07:52.316Z,77.6
2019-05-30T07:08:52.756Z,76.6
2019-05-30T07:12:57.266Z,79.5
2019-05-30T07:13:58.669Z,78.8
2019-05-30T07:15:00.065Z,77
2019-05-30T07:18:03.745Z,76.2
2019-05-30T07:19:05.141Z,77.6
2019-05-30T07:20:06.538Z,76.7
2019-05-30T07:21:07.930Z,76.1
2019-05-30T07:22:08.698Z,74.1
2019-05-30T07:27:14.648Z,74.5
2019-05-30T07:28:16.123Z,75.3
2019-05-30T07:29:17.515Z,74.5
2019-05-30T07:30:18.108Z,73.9
2019-05-30T07:31:18.966Z,74.3
2019-05-30T07:32:19.720Z,75.4
2019-05-30T07:33:20.998Z,73.4
2019-05-30T07:37:26.374Z,73.4
2019-05-30T07:39:34.842Z,74.3
2019-05-30T07:40:28.781Z,71.7
2019-05-30T07:41:30.783Z,71.8
2019-05-30T07:43:33.568Z,67.2
2019-05-30T07:44:32.987Z,69.2
2019-05-30T07:45:35.325Z,69.8
2019-05-30T07:46:35.714Z,71
2019-05-30T07:47:38.537Z,71.9
2019-05-30T07:48:38.992Z,72
2019-05-30T07:49:39.394Z,71.2
2019-05-30T07:50:40.801Z,70.9
2019-05-30T07:52:41.889Z,69.8
2019-05-30T07:53:43.302Z,68.9
2019-05-30T07:54:44.678Z,71.3
2019-05-30T07:55:46.084Z,69.2
2019-05-30T07:56:47.469Z,67.8
2019-05-30T07:57:48.888Z,69.2
2019-05-30T07:58:53.312Z,70.2
2019-05-30T07:59:54.171Z,71.5
2019-05-30T08:00:52.535Z,67
2019-05-30T08:02:54.598Z,67.4
2019-05-30T08:07:02.261Z,66.8
2019-05-30T08:12:05.425Z,67.6
2019-05-30T08:14:07.352Z,67.4
2019-05-30T08:15:08.746Z,66.4
2019-05-30T08:16:10.144Z,66.7
2019-05-30T08:18:12.686Z,62.2
2019-05-30T08:19:14.095Z,66.8
2019-05-30T08:20:15.487Z,66.3
2019-05-30T08:23:18.548Z,63.1
2019-05-30T08:24:19.944Z,60.9
2019-05-30T08:27:23.244Z,58.5
2019-05-30T08:31:28.833Z,64.2
2019-05-30T08:32:28.764Z,62.3
2019-05-30T08:33:29.950Z,63
2019-05-30T08:34:30.598Z,64
2019-05-30T08:36:32.529Z,59.2
2019-05-30T08:38:33.629Z,61.4
2019-05-30T08:39:35.428Z,57.4
2019-05-30T08:40:44.732Z,58.5
2019-05-30T08:41:39.421Z,56.9
2019-05-30T08:42:40.171Z,57.9
2019-05-30T08:43:39.838Z,56.4
2019-05-30T08:44:40.319Z,56.8
2019-05-30T08:45:41.712Z,53.1
2019-05-30T08:47:44.234Z,56.4
2019-05-30T08:48:45.651Z,56.7
2019-05-30T08:50:48.211Z,54.7
2019-05-30T08:53:51.232Z,55.8
2019-05-30T08:54:52.649Z,58
2019-05-30T08:57:56.281Z,55.8
2019-05-30T08:58:57.712Z,56.6
2019-05-30T08:59:59.104Z,55.7
2019-05-30T09:01:00.417Z,53.1
2019-05-30T09:03:02.952Z,52.2
2019-05-30T09:04:07.976Z,55.1
2019-05-30T09:05:07.324Z,55.3
2019-05-30T09:06:06.695Z,57
2019-05-30T09:07:08.094Z,54.4
2019-05-30T09:10:11.760Z,55.1
2019-05-30T09:11:13.159Z,57.1
2019-05-30T09:12:14.556Z,59.3
2019-05-30T09:13:15.950Z,58.7
2019-05-30T09:14:16.759Z,55
2019-05-30T09:18:21.737Z,59.8
2019-05-30T09:20:24.273Z,60.5
2019-05-30T09:21:27.864Z,60.2
2019-05-30T09:22:26.225Z,59.6
2019-05-30T09:24:28.201Z,62.7
2019-05-30T09:25:29.687Z,61.7
2019-05-30T09:26:31.075Z,62.3
2019-05-30T09:28:33.184Z,63.5
2019-05-30T09:29:34.513Z,63.2
2019-05-30T09:31:38.046Z,63.8
2019-05-30T09:32:41.160Z,63.6
2019-05-30T09:33:41.036Z,64.3
2019-05-30T09:34:43.316Z,63.8
2019-05-30T09:35:42.899Z,64.7
2019-05-30T09:36:42.868Z,65.8
2019-05-30T09:39:45.977Z,66.5
2019-05-30T09:40:47.791Z,65.8
2019-05-30T09:41:49.960Z,66.3
2019-05-30T09:42:50.628Z,66.7
2019-05-30T09:43:50.399Z,66.3
2019-05-30T09:44:52.332Z,66.6
2019-05-30T09:45:51.713Z,66.5
2019-05-30T09:46:53.112Z,68.1
2019-05-30T09:47:54.516Z,67.8
2019-05-30T09:48:58.017Z,67.7
2019-05-30T09:49:57.365Z,69.2
2019-05-30T09:50:58.118Z,68.8
2019-05-30T09:51:59.514Z,68.8
2019-05-30T09:54:02.275Z,70.3
2019-05-30T09:55:02.758Z,71.8
2019-05-30T09:57:05.271Z,71.7
2019-05-30T09:58:06.673Z,72.2
2019-05-30T09:59:08.068Z,73.9
2019-05-30T10:00:09.130Z,74.5
2019-05-30T10:01:10.531Z,73.8
2019-05-30T10:04:14.194Z,75.3
2019-05-30T10:06:30.069Z,75.3
2019-05-30T10:12:23.096Z,76.4
2019-05-30T10:13:24.492Z,77.2
2019-05-30T10:14:28.230Z,76.6
2019-05-30T10:17:28.401Z,77.8
2019-05-30T10:18:28.791Z,77.2
2019-05-30T10:19:30.189Z,77.3
2019-05-30T10:20:31.755Z,77.8
2019-05-30T10:21:32.142Z,78.7
2019-05-30T10:22:33.539Z,77.8
2019-05-30T10:26:37.713Z,78.5
2019-05-30T10:27:39.121Z,77.8
2019-05-30T10:28:40.516Z,77.8
2019-05-30T10:29:41.762Z,78.4
2019-05-30T10:30:42.799Z,78.2
2019-05-30T10:31:46.428Z,79
2019-05-30T10:32:48.433Z,79.6
2019-05-30T10:34:48.056Z,79.1
2019-05-30T10:36:50.328Z,79.8
2019-05-30T10:37:53.977Z,79.9
2019-05-30T10:38:52.376Z,80
2019-05-30T10:39:59.130Z,79.9
2019-05-30T10:40:54.211Z,79.1
2019-05-30T10:41:54.599Z,79
2019-05-30T10:42:57.048Z,77.6
2019-05-30T10:43:57.453Z,78.5
2019-05-30T10:44:58.863Z,78.3
2019-05-30T10:50:03.855Z,78
2019-05-30T10:51:04.991Z,78.4
2019-05-30T10:53:07.501Z,78.6
2019-05-30T10:54:08.897Z,78.2
2019-05-30T10:56:11.090Z,79
2019-05-30T10:57:12.484Z,79.6
2019-05-30T10:58:13.055Z,79.4
2019-05-30T10:59:14.455Z,78.6
2019-05-30T11:00:15.881Z,77.4
2019-05-30T11:02:18.397Z,79.1
2019-05-30T11:03:19.795Z,78.6
2019-05-30T11:04:21.183Z,78.3
2019-05-30T11:05:22.797Z,78.3
2019-05-30T11:08:24.831Z,76.1
2019-05-30T11:09:26.237Z,72.8
2019-05-30T11:11:28.810Z,74.3
2019-05-30T11:13:31.318Z,74
2019-05-30T11:14:32.708Z,73.9
2019-05-30T11:16:34.656Z,73.6
2019-05-30T11:17:36.044Z,73.4
2019-05-30T11:18:37.439Z,74.7
2019-05-30T11:19:38.049Z,74.9
2019-05-30T11:20:39.461Z,75.4
2019-05-30T11:22:41.994Z,76.5
2019-05-30T11:24:44.124Z,76.2
2019-05-30T11:25:45.650Z,76.4
2019-05-30T11:26:46.423Z,77.2
2019-05-30T11:28:48.911Z,78
2019-05-30T11:30:51.099Z,76.6
2019-05-30T11:31:53.051Z,77.2
2019-05-30T11:32:53.268Z,76.4
2019-05-30T11:33:55.160Z,77.9
2019-05-30T11:37:59.439Z,79.2
2019-05-30T11:38:59.826Z,78.3
2019-05-30T11:42:03.515Z,78.7
2019-05-30T11:43:04.912Z,78.6
2019-05-30T11:45:07.441Z,77.4
2019-05-30T11:46:08.864Z,78.3
2019-05-30T11:47:09.655Z,78.5
2019-05-30T11:48:11.046Z,78.6
2019-05-30T11:50:13.576Z,79.1
2019-05-30T11:51:16.011Z,79
2019-05-30T11:52:16.398Z,76.7
2019-05-30T11:53:17.801Z,77.1
2019-05-30T11:54:19.202Z,77.8
2019-05-30T11:57:22.310Z,75.7
2019-05-30T11:59:24.848Z,78
2019-05-30T12:00:26.242Z,77.8
2019-05-30T12:01:26.852Z,77.9
2019-05-30T12:02:28.280Z,78.1
2019-05-30T12:08:34.742Z,73.1
2019-05-30T12:09:36.138Z,74.5
2019-05-30T12:10:37.549Z,73.7
2019-05-30T12:12:42.816Z,74.9
2019-05-30T12:13:44.071Z,74.5
2019-05-30T12:16:44.722Z,72.6
2019-05-30T12:17:45.622Z,72.9
2019-05-30T12:18:46.384Z,72.4
2019-05-30T12:19:47.799Z,73.9
2019-05-30T12:21:49.799Z,71
2019-05-30T12:22:51.952Z,70.5
2019-05-30T12:23:52.181Z,71.8
2019-05-30T12:25:54.396Z,74.6
2019-05-30T12:29:58.520Z,74.5
2019-05-30T12:31:06.527Z,75.6
2019-05-30T12:32:03.485Z,75
2019-05-30T12:33:02.816Z,75.3
2019-05-30T12:34:03.208Z,74.9
2019-05-30T12:37:06.894Z,74.4
2019-05-30T12:40:03.608Z,69.1
2019-05-30T12:41:04.643Z,72
2019-05-30T12:42:06.046Z,70.8
2019-05-30T12:43:07.462Z,73.2
2019-05-30T12:46:11.120Z,69.4
2019-05-30T12:47:12.522Z,72.6
2019-05-30T12:48:13.941Z,72.7
2019-05-30T12:50:17.047Z,70.3
2019-05-30T12:52:18.323Z,72.5
2019-05-30T12:53:19.744Z,68.3
2019-05-30T12:57:24.534Z,70.6
2019-05-30T12:58:25.949Z,67
2019-05-30T12:59:27.356Z,67
2019-05-30T13:00:27.945Z,65.5
2019-05-30T13:03:31.156Z,68.1
2019-05-30T13:05:33.678Z,65.2
2019-05-30T13:08:37.349Z,67.8
2019-05-30T13:09:38.755Z,68.9
2019-05-30T13:10:40.152Z,69
2019-05-30T13:13:43.224Z,70.6
2019-05-30T13:14:44.615Z,69.6
2019-05-30T13:15:46.026Z,68.8
2019-05-30T13:17:48.574Z,68.5
2019-05-30T13:18:49.846Z,68.5
2019-05-30T13:20:52.155Z,69.3
2019-05-30T13:23:55.628Z,66.9
2019-05-30T13:25:57.654Z,66.4
2019-05-30T13:26:58.006Z,63.9
2019-05-30T13:28:06.953Z,65.4
2019-05-30T13:29:00.472Z,67
2019-05-30T13:30:02.428Z,67.7
2019-05-30T13:31:02.815Z,68.1
2019-05-30T13:32:04.698Z,67.7
2019-05-30T13:33:05.134Z,67.3
2019-05-30T13:36:08.964Z,66
2019-05-30T13:37:10.355Z,65.1
2019-05-30T13:39:13.203Z,62.8
2019-05-30T13:41:16.010Z,63.2
2019-05-30T13:42:15.774Z,64.6
2019-05-30T13:44:18.329Z,64.8
2019-05-30T13:46:20.843Z,65.3
2019-05-30T13:47:25.147Z,65.7
2019-05-30T13:49:24.359Z,62
2019-05-30T13:50:25.756Z,65.1
2019-05-30T13:52:28.446Z,61.7
2019-05-30T13:57:33.062Z,60.2
2019-05-30T13:58:34.475Z,62
2019-05-30T14:06:43.209Z,63.5
2019-05-30T14:07:44.620Z,64.1
2019-05-30T14:08:46.011Z,62
2019-05-30T14:10:48.929Z,64.1
2019-05-30T14:11:51.264Z,64.3
2019-05-30T14:12:51.528Z,65
2019-05-30T14:14:51.992Z,61.8
2019-05-30T14:15:53.431Z,59.7
2019-05-30T14:16:54.826Z,61.4
2019-05-30T14:17:56.048Z,61.3
2019-05-30T14:19:58.066Z,59.7
2019-05-30T14:20:59.469Z,60.1
2019-05-30T14:23:01.386Z,62.8
2019-05-30T14:24:03.547Z,62.8
2019-05-30T14:25:03.636Z,60.7
2019-05-30T14:26:05.457Z,61.5
2019-05-30T14:27:05.850Z,62.9
2019-05-30T14:28:07.981Z,64
2019-05-30T14:29:08.377Z,63
2019-05-30T14:33:12.559Z,62.4
2019-05-30T14:34:13.949Z,61.8
2019-05-30T14:35:17.535Z,61.1
2019-05-30T14:36:16.542Z,57
2019-05-30T14:40:22.089Z,61.3
2019-05-30T14:41:22.483Z,59.1
2019-05-30T14:42:23.879Z,61.7
2019-05-30T14:43:24.513Z,61.9
2019-05-30T14:44:26.079Z,62.6
2019-05-30T14:48:29.880Z,58.8
2019-05-30T14:49:31.279Z,58.3
2019-05-30T14:50:32.703Z,58.6
2019-05-30T14:52:34.407Z,58.7
2019-05-30T14:53:34.992Z,58
2019-05-30T14:58:40.419Z,58.5
2019-05-30T14:59:41.838Z,58.8
2019-05-30T15:00:42.415Z,58.5
2019-05-30T15:01:43.809Z,58.7
2019-05-30T15:02:46.065Z,58.5
2019-05-30T15:05:48.973Z,58.8
2019-05-30T15:08:52.230Z,59.2
2019-05-30T15:13:56.493Z,59.3
2019-05-30T15:14:56.893Z,59.7
2019-05-30T15:15:57.667Z,60
2019-05-30T15:16:59.077Z,60.2
2019-05-30T15:18:00.490Z,59.6
2019-05-30T15:21:02.701Z,60.7
2019-05-30T15:24:05.785Z,60.7
2019-05-30T15:25:05.995Z,61
2019-05-30T15:26:08.019Z,61.3
2019-05-30T15:27:08.404Z,61.6
2019-05-30T15:28:10.115Z,61.8
2019-05-30T15:31:12.574Z,59.1
2019-05-30T15:32:13.183Z,60.2
2019-05-30T15:34:15.036Z,62.3
2019-05-30T15:36:17.591Z,61.6
2019-05-30T15:37:18.988Z,62
2019-05-30T15:38:19.570Z,61.3
2019-05-30T15:40:21.847Z,58
2019-05-30T15:41:23.277Z,59
2019-05-30T15:44:26.310Z,61.4
2019-05-30T15:46:29.352Z,62.3
2019-05-30T15:49:32.006Z,60.1
2019-05-30T15:50:33.405Z,60.5
2019-05-30T15:54:38.277Z,62.1
2019-05-30T15:56:40.842Z,62.4
2019-05-30T15:59:44.481Z,61.8
2019-05-30T16:00:45.886Z,60.3
2019-05-30T16:01:47.313Z,59
2019-05-30T16:04:51.013Z,61.2
2019-05-30T16:06:53.572Z,59.4
2019-05-30T16:08:56.099Z,61.4
2019-05-30T16:09:57.496Z,61.5
2019-05-30T16:16:03.935Z,59.7
2019-05-30T16:17:05.362Z,60.2
2019-05-30T16:19:21.797Z,60.2
2019-05-30T16:20:07.653Z,60.4
2019-05-30T16:21:09.045Z,60.2
2019-05-30T16:22:09.900Z,59.9
2019-05-30T16:25:13.877Z,59.5
2019-05-30T16:26:13.647Z,59.8
2019-05-30T16:27:13.861Z,60.5
2019-05-30T16:30:24.114Z,61.2
2019-05-30T16:32:20.444Z,59
2019-05-30T16:34:22.551Z,58.4
2019-05-30T16:35:23.321Z,58
2019-05-30T16:36:24.718Z,58.2
2019-05-30T16:40:29.695Z,59.3
2019-05-30T16:41:31.119Z,58.3
2019-05-30T16:42:32.556Z,59
2019-05-30T16:47:37.715Z,57.9
2019-05-30T16:49:40.227Z,58.2
2019-05-30T16:50:41.628Z,57.8
2019-05-30T16:52:43.835Z,58.8
2019-05-30T16:53:45.217Z,59.1
2019-05-30T16:54:46.615Z,59.2
2019-05-30T16:55:47.502Z,59.3
2019-05-30T17:00:53.425Z,60.2
2019-05-30T17:01:58.629Z,59.6
2019-05-30T17:05:58.794Z,62.3
2019-05-30T17:07:00.207Z,60.1
2019-05-30T17:11:04.342Z,60.6
2019-05-30T17:12:05.760Z,60.8
2019-05-30T17:14:07.748Z,62
2019-05-30T17:15:09.150Z,62.3
2019-05-30T17:16:10.390Z,62
2019-05-30T17:17:11.079Z,61.8
2019-05-30T17:18:12.494Z,63.1
2019-05-30T17:19:13.178Z,62.3
2019-05-30T17:20:14.564Z,62
2019-05-30T17:21:16.842Z,62.7
2019-05-30T17:22:16.912Z,62.8
2019-05-30T17:23:18.799Z,63.3
2019-05-30T17:25:21.120Z,62.6
2019-05-30T17:26:21.389Z,63.4
2019-05-30T17:33:28.638Z,63.9
2019-05-30T17:34:30.028Z,64.4
2019-05-30T17:35:31.421Z,63.4
2019-05-30T17:36:32.376Z,62.9
2019-05-30T17:38:34.942Z,63
2019-05-30T17:39:36.356Z,62.9
2019-05-30T17:40:47.529Z,61.7
2019-05-30T17:41:38.214Z,61.5
2019-05-30T17:42:39.615Z,63
2019-05-30T17:43:40.205Z,62.2
2019-05-30T17:46:43.282Z,64.1
2019-05-30T17:47:44.691Z,62.9
2019-05-30T17:49:46.860Z,63.2
2019-05-30T17:50:47.424Z,64.2
2019-05-30T17:51:50.099Z,64.1
2019-05-30T17:54:51.750Z,65.3
2019-05-30T17:56:54.327Z,65.3
2019-05-30T17:57:55.510Z,66.3
2019-05-30T17:58:56.896Z,65.7
2019-05-30T18:00:59.427Z,66.3
2019-05-30T18:03:01.983Z,65.7
2019-05-30T18:04:03.382Z,66.3
2019-05-30T18:05:03.954Z,66.5
2019-05-30T18:06:05.356Z,66.7
2019-05-30T18:07:06.108Z,66.2
2019-05-30T18:08:07.534Z,65.4
2019-05-30T18:09:08.937Z,64.6
2019-05-30T18:10:09.510Z,65
2019-05-30T18:12:12.037Z,65.1
2019-05-30T18:13:13.459Z,66.1
2019-05-30T18:14:14.862Z,66.6
2019-05-30T18:15:16.251Z,66.2
2019-05-30T18:16:17.524Z,66.8
2019-05-30T18:19:19.465Z,66.8
2019-05-30T18:20:21.318Z,66.4
2019-05-30T18:21:21.579Z,65.8
2019-05-30T18:23:23.826Z,66.1
2019-05-30T18:25:26.026Z,67
2019-05-30T18:26:27.678Z,67.1
2019-05-30T18:27:28.345Z,68.3
2019-05-30T18:29:30.337Z,67.4
2019-05-30T18:30:31.962Z,66.9
2019-05-30T18:31:32.481Z,66.9
2019-05-30T18:32:32.968Z,67.2
2019-05-30T18:33:33.578Z,67.6
2019-05-30T18:34:35.009Z,67.6
2019-05-30T18:35:36.400Z,68.5
2019-05-30T18:37:38.292Z,69.2
2019-05-30T18:38:39.687Z,69.7
2019-05-30T18:39:40.279Z,69.9
2019-05-30T18:40:41.681Z,70.3
2019-05-30T18:41:43.074Z,70.5
2019-05-30T18:42:44.471Z,70.5
2019-05-30T18:43:45.872Z,71.3
2019-05-30T18:44:47.497Z,71.4
2019-05-30T18:45:47.892Z,71.4
2019-05-30T18:46:49.289Z,72.1
2019-05-30T18:47:50.086Z,72.5
2019-05-30T18:48:51.455Z,72.3
2019-05-30T18:49:52.894Z,72.9
2019-05-30T18:50:54.027Z,73.2
2019-05-30T18:51:55.457Z,73.4
2019-05-30T18:52:56.837Z,73.8
2019-05-30T18:53:58.268Z,73.8
2019-05-30T18:54:59.665Z,74
2019-05-30T18:57:01.893Z,74.1
2019-05-30T18:58:02.666Z,74.5
2019-05-30T18:59:03.240Z,74.2
2019-05-30T19:00:04.835Z,74.4
2019-05-30T19:01:05.789Z,74.1
2019-05-30T19:02:07.387Z,75
2019-05-30T19:03:07.772Z,74.8
2019-05-30T19:04:09.200Z,73.8
2019-05-30T19:05:10.637Z,74.1
2019-05-30T19:06:12.026Z,74.4
2019-05-30T19:07:12.611Z,74.7
2019-05-30T19:08:13.384Z,75
2019-05-30T19:09:17.657Z,75.2
2019-05-30T19:10:15.981Z,75.3
2019-05-30T19:12:18.723Z,75.3
2019-05-30T19:14:20.025Z,76.6
2019-05-30T19:15:21.072Z,75.5
2019-05-30T19:16:22.067Z,75.9
2019-05-30T19:17:22.655Z,76
2019-05-30T19:18:23.427Z,76.2
2019-05-30T19:19:25.997Z,76.1
2019-05-30T19:20:27.654Z,76.5
2019-05-30T19:22:32.326Z,77.2
2019-05-30T19:23:30.181Z,77.3
2019-05-30T19:24:30.709Z,77.4
2019-05-30T19:25:33.921Z,77.6
2019-05-30T19:26:34.808Z,77.8
2019-05-30T19:28:34.771Z,78
2019-05-30T19:29:37.223Z,78.3
2019-05-30T19:30:40.386Z,78.6
2019-05-30T19:31:38.302Z,79
2019-05-30T19:32:39.700Z,79.1
2019-05-30T19:35:43.573Z,79.3
2019-05-30T19:36:47.676Z,79.5
2019-05-30T19:37:45.910Z,79.6
2019-05-30T19:39:47.985Z,79.7
2019-05-30T19:40:49.585Z,79.8
2019-05-30T19:41:57.746Z,79.9
2019-05-30T19:44:53.369Z,80.3
2019-05-30T19:45:54.761Z,80.3
2019-05-30T19:46:56.173Z,80.8
2019-05-30T19:47:57.589Z,80.7
2019-05-30T19:48:58.515Z,80.8
2019-05-30T19:52:02.272Z,80.9
2019-05-30T19:56:06.523Z,81.1
2019-05-30T19:57:07.919Z,81.2
2019-05-30T19:58:09.317Z,81.3
2019-05-30T19:59:10.105Z,81.6
2019-05-30T20:00:11.693Z,81.5
2019-05-30T20:01:12.082Z,81
2019-05-30T20:02:13.480Z,81.2
2019-05-30T20:03:14.885Z,81.4
2019-05-30T20:04:15.694Z,81.5
2019-05-30T20:05:17.111Z,81.6
2019-05-30T20:07:19.055Z,81.9
2019-05-30T20:08:20.470Z,81.8
2019-05-30T20:09:24.288Z,81.9
2019-05-30T20:15:28.112Z,81.9
2019-05-30T20:16:29.525Z,81.8
2019-05-30T20:17:31.730Z,82.2
2019-05-30T20:18:31.754Z,82.2
2019-05-30T20:19:33.559Z,82.2
2019-05-30T20:20:57.462Z,82.7
2019-05-30T20:21:33.937Z,82.7
2019-05-30T20:22:36.100Z,82.5
2019-05-30T20:24:38.495Z,83.1
2019-05-30T20:25:46.134Z,83
2019-05-30T20:26:40.752Z,82.9
2019-05-30T20:27:41.053Z,83
2019-05-30T20:28:41.433Z,83.1